createdAt,value
2022-09-13T00:01:58.818Z,19.39
2022-09-13T00:07:00.655Z,19.47
2022-09-13T00:12:02.393Z,19.33
2022-09-13T00:17:04.260Z,19.19
2022-09-13T00:22:06.450Z,19.21
2022-09-13T00:27:08.152Z,19.23
2022-09-13T00:32:09.554Z,19.28
2022-09-13T00:37:10.944Z,19.31
2022-09-13T00:42:13.734Z,19.35
2022-09-13T00:47:21.118Z,19.45
2022-09-13T00:52:25.978Z,19.36
2022-09-13T00:57:28.851Z,19.42
2022-09-13T01:02:30.794Z,19.37
2022-09-13T01:07:32.845Z,19.28
2022-09-13T01:12:55.932Z,19.36
2022-09-13T01:17:57.869Z,19.29
2022-09-13T01:23:37.943Z,19.34
2022-09-13T01:29:10.093Z,19.32
2022-09-13T01:34:27.612Z,19.32
2022-09-13T01:40:03.439Z,19.35
2022-09-13T01:45:27.126Z,19.17
2022-09-13T01:50:39.075Z,19.14
2022-09-13T01:55:59.498Z,19.17
2022-09-13T02:01:18.623Z,19.16
2022-09-13T02:06:25.284Z,19.14
2022-09-13T02:11:27.468Z,19.22
2022-09-13T02:16:39.454Z,19.32
2022-09-13T02:21:44.865Z,19.22
2022-09-13T02:26:47.236Z,19.16
2022-09-13T02:32:10.779Z,19.25
2022-09-13T02:37:13.135Z,19.33
2022-09-13T02:42:19.797Z,19.34
2022-09-13T02:47:40.014Z,19.41
2022-09-13T02:53:05.708Z,19.33
2022-09-13T02:58:21.509Z,19.31
2022-09-13T03:03:25.311Z,19.25
2022-09-13T03:08:27.513Z,19.24
2022-09-13T03:13:50.256Z,19.21
2022-09-13T03:19:20.614Z,19.21
2022-09-13T03:24:50.111Z,19.16
2022-09-13T03:30:02.145Z,19.09
2022-09-13T03:35:17.409Z,19.00
2022-09-13T03:40:28.468Z,18.97
2022-09-13T03:45:36.097Z,19.11
2022-09-13T03:50:39.134Z,19.03
2022-09-13T03:55:42.838Z,19.00
2022-09-13T04:00:45.734Z,19.07
2022-09-13T04:05:47.627Z,18.89
2022-09-13T04:10:52.194Z,18.83
2022-09-13T04:15:54.451Z,18.98
2022-09-13T04:20:58.629Z,18.88
2022-09-13T04:26:04.864Z,18.98
2022-09-13T04:31:06.263Z,18.83
2022-09-13T04:36:07.776Z,18.95
2022-09-13T04:41:10.748Z,18.93
2022-09-13T04:46:12.330Z,18.88
2022-09-13T04:51:14.927Z,19.03
2022-09-13T04:56:17.594Z,18.93
2022-09-13T05:01:19.600Z,18.79
2022-09-13T05:06:21.572Z,18.95
2022-09-13T05:11:25.226Z,18.99
2022-09-13T05:16:32.732Z,19.01
2022-09-13T05:21:34.429Z,18.90
2022-09-13T05:26:37.170Z,18.91
2022-09-13T05:31:40.920Z,18.91
2022-09-13T05:36:42.569Z,18.98
2022-09-13T05:41:45.275Z,19.03
2022-09-13T05:46:47.632Z,19.03
2022-09-13T05:51:49.072Z,19.04
2022-09-13T05:56:52.446Z,19.13
2022-09-13T06:01:54.395Z,19.22
2022-09-13T06:06:55.841Z,19.26
2022-09-13T06:11:57.547Z,19.29
2022-09-13T06:16:59.023Z,19.42
2022-09-13T06:22:00.478Z,19.41
2022-09-13T06:27:01.941Z,19.49
2022-09-13T06:32:04.394Z,19.41
2022-09-13T06:37:06.053Z,19.49
2022-09-13T06:42:07.973Z,19.58
2022-09-13T06:47:14.585Z,19.64
2022-09-13T06:52:16.259Z,19.67
2022-09-13T06:57:17.638Z,19.85
2022-09-13T07:02:19.182Z,19.85
2022-09-13T07:07:20.944Z,19.89
2022-09-13T07:12:22.581Z,20.02
2022-09-13T07:17:24.051Z,20.05
2022-09-13T07:22:27.688Z,20.16
2022-09-13T07:27:29.146Z,20.29
2022-09-13T07:32:32.542Z,20.38
2022-09-13T07:37:36.313Z,20.38
2022-09-13T07:42:38.191Z,20.47
2022-09-13T07:47:39.849Z,20.55
2022-09-13T07:52:41.486Z,20.67
2022-09-13T07:57:43.216Z,20.89
2022-09-13T08:02:45.069Z,21.05
2022-09-13T08:07:46.680Z,21.07
2022-09-13T08:12:48.187Z,21.21
2022-09-13T08:17:49.652Z,21.26
2022-09-13T08:22:51.555Z,21.21
2022-09-13T08:27:52.923Z,21.27
2022-09-13T08:32:54.696Z,21.48
2022-09-13T08:37:56.576Z,21.62
2022-09-13T08:43:23.862Z,21.69
2022-09-13T08:48:37.613Z,21.67
2022-09-13T08:53:46.764Z,21.69
2022-09-13T08:59:06.290Z,21.81
2022-09-13T09:04:29.467Z,22.03
2022-09-13T09:09:37.140Z,22.12
2022-09-13T09:14:44.265Z,22.30
2022-09-13T09:19:54.271Z,22.42
2022-09-13T09:24:58.127Z,22.54
2022-09-13T09:30:01.427Z,22.71
2022-09-13T09:35:31.427Z,22.84
2022-09-13T09:40:36.369Z,22.96
2022-09-13T09:45:41.787Z,22.89
2022-09-13T09:51:05.377Z,22.98
2022-09-13T09:56:24.916Z,23.16
2022-09-13T10:01:29.018Z,23.36
2022-09-13T10:06:31.362Z,23.58
2022-09-13T10:11:48.931Z,23.61
2022-09-13T10:17:04.674Z,23.63
2022-09-13T10:22:11.589Z,23.79
2022-09-13T10:27:32.325Z,23.86
2022-09-13T10:32:34.295Z,24.00
2022-09-13T10:37:36.670Z,23.87
2022-09-13T10:42:38.336Z,24.03
2022-09-13T10:47:47.844Z,23.84
2022-09-13T10:52:51.551Z,23.93
2022-09-13T10:57:54.631Z,23.97
2022-09-13T11:03:04.997Z,23.90
2022-09-13T11:08:20.031Z,24.07
2022-09-13T11:13:42.991Z,24.19
2022-09-13T11:19:18.942Z,24.23
2022-09-13T11:24:44.910Z,24.47
2022-09-13T11:30:18.247Z,24.44
2022-09-13T11:35:28.689Z,24.59
2022-09-13T11:41:03.889Z,24.75
2022-09-13T11:46:39.534Z,24.96
2022-09-13T11:52:02.436Z,25.05
2022-09-13T11:57:11.221Z,25.17
2022-09-13T12:02:43.461Z,25.39
2022-09-13T12:07:51.527Z,25.29
2022-09-13T12:12:56.195Z,25.33
2022-09-13T12:18:05.471Z,25.22
2022-09-13T12:23:14.490Z,25.14
2022-09-13T12:28:19.491Z,25.31
2022-09-13T12:33:21.201Z,25.17
2022-09-13T12:38:40.653Z,24.99
2022-09-13T12:43:54.143Z,25.13
2022-09-13T12:49:01.736Z,25.20
2022-09-13T12:54:39.795Z,25.24
2022-09-13T12:59:53.081Z,25.46
2022-09-13T13:05:00.517Z,25.58
2022-09-13T13:10:03.073Z,25.50
2022-09-13T13:15:27.837Z,25.64
2022-09-13T13:20:53.405Z,25.37
2022-09-13T13:26:18.330Z,25.52
2022-09-13T13:31:32.246Z,25.45
2022-09-13T13:36:39.703Z,25.48
2022-09-13T13:41:54.602Z,25.61
2022-09-13T13:47:08.516Z,25.60
2022-09-13T13:52:10.063Z,25.57
2022-09-13T13:57:26.369Z,25.88
2022-09-13T14:02:40.858Z,25.75
2022-09-13T14:07:58.118Z,25.98
2022-09-13T14:13:31.993Z,25.69
2022-09-13T14:18:45.996Z,26.04
2022-09-13T14:23:47.623Z,25.87
2022-09-13T14:28:49.231Z,25.75
2022-09-13T14:33:50.730Z,25.71
2022-09-13T14:38:58.071Z,25.75
2022-09-13T14:44:27.792Z,25.87
2022-09-13T14:49:36.170Z,25.90
2022-09-13T14:54:44.381Z,25.79
2022-09-13T14:59:50.126Z,25.93
2022-09-13T15:04:55.364Z,25.95
2022-09-13T15:10:05.160Z,25.81
2022-09-13T15:15:24.021Z,25.70
2022-09-13T15:20:29.479Z,25.65
2022-09-13T15:25:31.826Z,25.59
2022-09-13T15:30:41.622Z,25.57
2022-09-13T15:35:45.337Z,25.32
2022-09-13T15:40:57.940Z,25.31
2022-09-13T15:46:01.623Z,25.24
2022-09-13T15:51:12.143Z,25.22
2022-09-13T15:56:17.338Z,25.13
2022-09-13T16:01:18.850Z,25.21
2022-09-13T16:06:24.461Z,24.96
2022-09-13T16:11:27.058Z,25.01
2022-09-13T16:16:28.737Z,24.85
2022-09-13T16:21:30.711Z,24.69
2022-09-13T16:26:32.951Z,24.79
2022-09-13T16:31:34.386Z,24.64
2022-09-13T16:36:35.843Z,24.21
2022-09-13T16:41:39.363Z,24.04
2022-09-13T16:46:40.872Z,23.89
2022-09-13T16:51:42.402Z,23.74
2022-09-13T16:56:43.981Z,23.52
2022-09-13T17:01:45.479Z,23.42
2022-09-13T17:06:46.955Z,23.41
2022-09-13T17:11:48.517Z,23.38
2022-09-13T17:16:54.430Z,23.34
2022-09-13T17:21:57.664Z,23.26
2022-09-13T17:26:59.251Z,23.30
2022-09-13T17:32:03.523Z,23.22
2022-09-13T17:37:06.527Z,23.15
2022-09-13T17:42:07.971Z,23.08
2022-09-13T17:47:09.490Z,22.97
2022-09-13T17:52:11.251Z,22.77
2022-09-13T17:57:15.502Z,22.64
2022-09-13T18:02:17.132Z,22.55
2022-09-13T18:07:18.835Z,22.42
2022-09-13T18:12:20.230Z,22.46
2022-09-13T18:17:22.028Z,22.33
2022-09-13T18:22:23.723Z,22.27
2022-09-13T18:27:25.120Z,22.09
2022-09-13T18:32:26.623Z,21.94
2022-09-13T18:37:30.633Z,21.95
2022-09-13T18:42:33.472Z,21.82
2022-09-13T18:47:35.160Z,21.79
2022-09-13T18:52:39.075Z,21.80
2022-09-13T18:57:40.543Z,21.74
2022-09-13T19:03:01.977Z,21.62
2022-09-13T19:08:07.009Z,21.61
2022-09-13T19:13:08.630Z,21.62
2022-09-13T19:18:10.042Z,21.51
2022-09-13T19:23:11.437Z,21.56
2022-09-13T19:28:13.032Z,21.44
2022-09-13T19:33:14.672Z,21.42
2022-09-13T19:38:16.072Z,21.33
2022-09-13T19:43:17.480Z,21.20
2022-09-13T19:48:38.070Z,21.25
2022-09-13T19:53:56.411Z,21.28
2022-09-13T19:59:00.233Z,21.39
2022-09-13T20:04:07.641Z,21.27
2022-09-13T20:09:10.089Z,21.20
2022-09-13T20:14:13.231Z,21.14
2022-09-13T20:24:41.490Z,21.03
2022-09-13T20:29:42.918Z,21.12
2022-09-13T20:34:44.421Z,21.10
2022-09-13T20:39:46.046Z,20.98
2022-09-13T20:44:47.650Z,20.95
2022-09-13T20:49:49.127Z,21.02
2022-09-13T20:54:50.735Z,20.89
2022-09-13T20:59:52.570Z,20.85
2022-09-13T21:04:54.137Z,20.83
2022-09-13T21:09:56.595Z,20.83
2022-09-13T21:14:58.279Z,20.74
2022-09-13T21:19:59.746Z,20.63
2022-09-13T21:25:01.145Z,20.51
2022-09-13T21:30:03.550Z,20.58
2022-09-13T21:35:05.506Z,20.53
2022-09-13T21:40:07.689Z,20.15
2022-09-13T21:45:09.629Z,20.02
2022-09-13T21:50:11.041Z,19.88
2022-09-13T21:55:12.595Z,19.92
2022-09-13T22:00:15.059Z,19.86
2022-09-13T22:05:16.500Z,19.83
2022-09-13T22:10:18.039Z,19.72
2022-09-13T22:15:19.448Z,19.75
2022-09-13T22:20:20.926Z,19.55
2022-09-13T22:25:22.433Z,19.61
2022-09-13T22:30:23.822Z,19.70
2022-09-13T22:35:25.200Z,19.54
2022-09-13T22:40:27.534Z,19.59
2022-09-13T22:45:29.812Z,19.55
2022-09-13T22:50:31.484Z,19.51
2022-09-13T22:55:34.018Z,19.57
2022-09-13T23:00:35.419Z,19.40
2022-09-13T23:05:37.654Z,19.56
2022-09-13T23:10:39.066Z,19.40
2022-09-13T23:15:40.531Z,19.38
2022-09-13T23:20:43.244Z,19.40
2022-09-13T23:25:44.814Z,19.32
2022-09-13T23:30:46.596Z,19.40
2022-09-13T23:35:48.765Z,19.13
2022-09-13T23:40:50.175Z,19.15
2022-09-13T23:45:53.368Z,19.21
2022-09-13T23:51:04.295Z,18.95
2022-09-13T23:56:07.883Z,19.04
